sensor_id;sensor_type;location;lat;lon;timestamp;P1;durP1;ratioP1;P2;durP2;ratioP2
54947;SDS011;41113;41.882;12.530;2023-03-24T00:01:53;21.50;;;13.85;;
54947;SDS011;41113;41.882;12.530;2023-03-24T00:04:20;27.73;;;16.70;;
54947;SDS011;41113;41.882;12.530;2023-03-24T00:06:46;22.88;;;15.93;;
54947;SDS011;41113;41.882;12.530;2023-03-24T00:09:13;26.63;;;15.15;;
54947;SDS011;41113;41.882;12.530;2023-03-24T00:11:40;20.20;;;13.75;;
54947;SDS011;41113;41.882;12.530;2023-03-24T00:14:05;19.00;;;11.30;;
54947;SDS011;41113;41.882;12.530;2023-03-24T00:16:31;20.67;;;12.85;;
54947;SDS011;41113;41.882;12.530;2023-03-24T00:18:58;18.30;;;11.05;;
54947;SDS011;41113;41.882;12.530;2023-03-24T00:21:24;17.88;;;11.18;;
54947;SDS011;41113;41.882;12.530;2023-03-24T00:23:50;17.60;;;11.45;;
54947;SDS011;41113;41.882;12.530;2023-03-24T00:26:18;17.40;;;11.82;;
54947;SDS011;41113;41.882;12.530;2023-03-24T00:28:45;20.88;;;12.68;;
54947;SDS011;41113;41.882;12.530;2023-03-24T00:31:12;16.20;;;10.75;;
54947;SDS011;41113;41.882;12.530;2023-03-24T00:33:39;17.52;;;12.57;;
54947;SDS011;41113;41.882;12.530;2023-03-24T00:36:05;19.75;;;13.40;;
54947;SDS011;41113;41.882;12.530;2023-03-24T00:38:32;19.42;;;12.10;;
54947;SDS011;41113;41.882;12.530;2023-03-24T00:40:59;19.83;;;12.02;;
54947;SDS011;41113;41.882;12.530;2023-03-24T00:43:25;19.10;;;12.40;;
54947;SDS011;41113;41.882;12.530;2023-03-24T00:45:56;18.38;;;12.50;;
54947;SDS011;41113;41.882;12.530;2023-03-24T00:48:25;22.45;;;12.73;;
54947;SDS011;41113;41.882;12.530;2023-03-24T00:50:51;25.67;;;15.27;;
54947;SDS011;41113;41.882;12.530;2023-03-24T00:53:16;22.30;;;13.18;;
54947;SDS011;41113;41.882;12.530;2023-03-24T00:55:43;22.98;;;13.52;;
54947;SDS011;41113;41.882;12.530;2023-03-24T00:58:12;20.27;;;13.75;;
54947;SDS011;41113;41.882;12.530;2023-03-24T01:00:45;21.15;;;14.88;;
54947;SDS011;41113;41.882;12.530;2023-03-24T01:05:37;19.95;;;13.02;;
54947;SDS011;41113;41.882;12.530;2023-03-24T01:08:04;23.02;;;15.00;;
54947;SDS011;41113;41.882;12.530;2023-03-24T01:10:34;23.77;;;14.23;;
54947;SDS011;41113;41.882;12.530;2023-03-24T01:13:06;20.05;;;13.38;;
54947;SDS011;41113;41.882;12.530;2023-03-24T01:15:32;21.58;;;12.65;;
54947;SDS011;41113;41.882;12.530;2023-03-24T01:17:58;22.17;;;13.95;;
54947;SDS011;41113;41.882;12.530;2023-03-24T01:20:27;22.27;;;13.15;;
54947;SDS011;41113;41.882;12.530;2023-03-24T01:22:57;21.38;;;13.38;;
54947;SDS011;41113;41.882;12.530;2023-03-24T01:25:24;21.30;;;12.68;;
54947;SDS011;41113;41.882;12.530;2023-03-24T01:27:50;22.70;;;13.95;;
54947;SDS011;41113;41.882;12.530;2023-03-24T01:30:18;26.25;;;15.68;;
54947;SDS011;41113;41.882;12.530;2023-03-24T01:32:47;19.77;;;12.18;;
54947;SDS011;41113;41.882;12.530;2023-03-24T01:35:12;20.98;;;12.95;;
54947;SDS011;41113;41.882;12.530;2023-03-24T01:37:38;22.23;;;13.85;;
54947;SDS011;41113;41.882;12.530;2023-03-24T01:40:04;19.60;;;12.23;;
54947;SDS011;41113;41.882;12.530;2023-03-24T01:42:34;17.88;;;11.55;;
54947;SDS011;41113;41.882;12.530;2023-03-24T01:45:00;17.40;;;10.32;;
54947;SDS011;41113;41.882;12.530;2023-03-24T01:47:46;19.27;;;11.60;;
54947;SDS011;41113;41.882;12.530;2023-03-24T01:50:12;23.85;;;12.40;;
54947;SDS011;41113;41.882;12.530;2023-03-24T01:52:38;20.83;;;11.55;;
54947;SDS011;41113;41.882;12.530;2023-03-24T01:55:08;20.80;;;11.48;;
54947;SDS011;41113;41.882;12.530;2023-03-24T01:57:44;18.95;;;10.93;;
54947;SDS011;41113;41.882;12.530;2023-03-24T02:00:14;18.23;;;10.18;;
54947;SDS011;41113;41.882;12.530;2023-03-24T02:02:44;17.65;;;10.25;;
54947;SDS011;41113;41.882;12.530;2023-03-24T02:05:13;18.33;;;11.50;;
54947;SDS011;41113;41.882;12.530;2023-03-24T02:10:22;19.52;;;11.68;;
54947;SDS011;41113;41.882;12.530;2023-03-24T02:12:48;20.75;;;13.15;;
54947;SDS011;41113;41.882;12.530;2023-03-24T02:15:14;19.15;;;12.20;;
54947;SDS011;41113;41.882;12.530;2023-03-24T02:26:54;19.80;;;11.85;;
54947;SDS011;41113;41.882;12.530;2023-03-24T02:35:31;20.85;;;12.48;;
54947;SDS011;41113;41.882;12.530;2023-03-24T02:51:22;18.55;;;11.25;;
54947;SDS011;41113;41.882;12.530;2023-03-24T02:54:09;18.42;;;11.35;;
54947;SDS011;41113;41.882;12.530;2023-03-24T02:56:49;16.90;;;10.85;;
54947;SDS011;41113;41.882;12.530;2023-03-24T02:59:21;17.48;;;12.63;;
54947;SDS011;41113;41.882;12.530;2023-03-24T03:02:03;16.27;;;11.80;;
54947;SDS011;41113;41.882;12.530;2023-03-24T03:04:44;18.55;;;11.35;;
54947;SDS011;41113;41.882;12.530;2023-03-24T03:07:14;15.45;;;10.23;;
54947;SDS011;41113;41.882;12.530;2023-03-24T03:09:53;15.75;;;10.50;;
54947;SDS011;41113;41.882;12.530;2023-03-24T03:12:24;14.73;;;8.60;;
54947;SDS011;41113;41.882;12.530;2023-03-24T03:14:55;20.25;;;13.18;;
54947;SDS011;41113;41.882;12.530;2023-03-24T03:17:28;19.55;;;12.63;;
54947;SDS011;41113;41.882;12.530;2023-03-24T03:20:03;18.58;;;13.38;;
54947;SDS011;41113;41.882;12.530;2023-03-24T03:22:50;18.27;;;12.88;;
54947;SDS011;41113;41.882;12.530;2023-03-24T03:25:21;21.50;;;13.45;;
54947;SDS011;41113;41.882;12.530;2023-03-24T03:27:51;20.88;;;12.23;;
54947;SDS011;41113;41.882;12.530;2023-03-24T03:35:21;19.88;;;11.07;;
54947;SDS011;41113;41.882;12.530;2023-03-24T03:40:35;20.25;;;12.40;;
54947;SDS011;41113;41.882;12.530;2023-03-24T03:43:01;20.92;;;13.13;;
54947;SDS011;41113;41.882;12.530;2023-03-24T03:45:28;19.15;;;12.95;;
54947;SDS011;41113;41.882;12.530;2023-03-24T03:47:53;18.95;;;13.35;;
54947;SDS011;41113;41.882;12.530;2023-03-24T03:50:19;20.95;;;14.43;;
54947;SDS011;41113;41.882;12.530;2023-03-24T03:52:45;23.95;;;14.63;;
54947;SDS011;41113;41.882;12.530;2023-03-24T03:55:11;20.30;;;13.85;;
54947;SDS011;41113;41.882;12.530;2023-03-24T03:57:37;21.88;;;13.82;;
54947;SDS011;41113;41.882;12.530;2023-03-24T04:00:04;18.60;;;12.85;;
54947;SDS011;41113;41.882;12.530;2023-03-24T04:13:57;22.30;;;12.02;;
54947;SDS011;41113;41.882;12.530;2023-03-24T04:30:32;19.02;;;12.43;;
54947;SDS011;41113;41.882;12.530;2023-03-24T04:33:05;19.48;;;12.95;;
54947;SDS011;41113;41.882;12.530;2023-03-24T04:35:42;19.17;;;12.80;;
54947;SDS011;41113;41.882;12.530;2023-03-24T04:38:20;22.50;;;12.85;;
54947;SDS011;41113;41.882;12.530;2023-03-24T04:40:52;19.10;;;12.65;;
54947;SDS011;41113;41.882;12.530;2023-03-24T04:43:21;18.90;;;12.73;;
54947;SDS011;41113;41.882;12.530;2023-03-24T04:45:49;20.08;;;12.20;;
54947;SDS011;41113;41.882;12.530;2023-03-24T04:48:17;18.48;;;12.25;;
54947;SDS011;41113;41.882;12.530;2023-03-24T04:50:47;23.20;;;12.63;;
54947;SDS011;41113;41.882;12.530;2023-03-24T04:53:17;17.92;;;12.70;;
54947;SDS011;41113;41.882;12.530;2023-03-24T04:58:15;14.45;;;8.88;;
54947;SDS011;41113;41.882;12.530;2023-03-24T05:00:42;16.33;;;9.77;;
54947;SDS011;41113;41.882;12.530;2023-03-24T05:03:08;20.35;;;13.15;;
54947;SDS011;41113;41.882;12.530;2023-03-24T05:05:38;20.65;;;13.52;;
54947;SDS011;41113;41.882;12.530;2023-03-24T05:08:14;24.70;;;14.98;;
54947;SDS011;41113;41.882;12.530;2023-03-24T05:10:41;25.92;;;16.35;;
54947;SDS011;41113;41.882;12.530;2023-03-24T05:13:06;24.20;;;16.45;;
54947;SDS011;41113;41.882;12.530;2023-03-24T05:15:32;29.67;;;17.98;;
54947;SDS011;41113;41.882;12.530;2023-03-24T05:17:58;25.75;;;15.73;;
54947;SDS011;41113;41.882;12.530;2023-03-24T05:20:27;27.88;;;18.33;;
54947;SDS011;41113;41.882;12.530;2023-03-24T05:22:57;27.42;;;17.33;;
54947;SDS011;41113;41.882;12.530;2023-03-24T05:25:22;29.33;;;17.83;;
54947;SDS011;41113;41.882;12.530;2023-03-24T05:27:48;27.98;;;18.17;;
54947;SDS011;41113;41.882;12.530;2023-03-24T05:30:14;26.33;;;17.63;;
54947;SDS011;41113;41.882;12.530;2023-03-24T05:32:40;24.85;;;16.27;;
54947;SDS011;41113;41.882;12.530;2023-03-24T05:35:06;32.65;;;18.73;;
54947;SDS011;41113;41.882;12.530;2023-03-24T05:37:32;24.98;;;17.15;;
54947;SDS011;41113;41.882;12.530;2023-03-24T05:39:58;25.52;;;17.80;;
54947;SDS011;41113;41.882;12.530;2023-03-24T05:42:23;24.38;;;17.23;;
54947;SDS011;41113;41.882;12.530;2023-03-24T05:44:49;25.42;;;16.33;;
54947;SDS011;41113;41.882;12.530;2023-03-24T05:47:17;22.08;;;15.18;;
54947;SDS011;41113;41.882;12.530;2023-03-24T05:49:44;23.00;;;16.13;;
54947;SDS011;41113;41.882;12.530;2023-03-24T05:52:10;22.60;;;15.82;;
54947;SDS011;41113;41.882;12.530;2023-03-24T05:54:37;26.40;;;16.45;;
54947;SDS011;41113;41.882;12.530;2023-03-24T05:57:05;19.30;;;14.07;;
54947;SDS011;41113;41.882;12.530;2023-03-24T05:59:34;22.40;;;16.00;;
54947;SDS011;41113;41.882;12.530;2023-03-24T06:02:00;21.63;;;15.13;;
54947;SDS011;41113;41.882;12.530;2023-03-24T06:04:26;22.13;;;15.00;;
54947;SDS011;41113;41.882;12.530;2023-03-24T06:06:55;25.63;;;16.40;;
54947;SDS011;41113;41.882;12.530;2023-03-24T06:09:23;21.33;;;14.73;;
54947;SDS011;41113;41.882;12.530;2023-03-24T06:11:59;20.35;;;14.10;;
54947;SDS011;41113;41.882;12.530;2023-03-24T06:14:26;20.02;;;13.65;;
54947;SDS011;41113;41.882;12.530;2023-03-24T06:16:51;21.77;;;13.85;;
54947;SDS011;41113;41.882;12.530;2023-03-24T06:19:16;20.52;;;13.93;;
54947;SDS011;41113;41.882;12.530;2023-03-24T06:21:46;24.15;;;15.35;;
54947;SDS011;41113;41.882;12.530;2023-03-24T06:24:14;24.80;;;16.02;;
54947;SDS011;41113;41.882;12.530;2023-03-24T06:26:40;22.05;;;16.33;;
54947;SDS011;41113;41.882;12.530;2023-03-24T06:29:08;25.63;;;16.90;;
54947;SDS011;41113;41.882;12.530;2023-03-24T06:31:34;23.80;;;16.83;;
54947;SDS011;41113;41.882;12.530;2023-03-24T06:34:01;24.20;;;16.48;;
54947;SDS011;41113;41.882;12.530;2023-03-24T06:36:27;25.92;;;16.20;;
54947;SDS011;41113;41.882;12.530;2023-03-24T06:38:53;23.83;;;16.85;;
54947;SDS011;41113;41.882;12.530;2023-03-24T06:41:18;25.55;;;16.33;;
54947;SDS011;41113;41.882;12.530;2023-03-24T06:43:44;26.80;;;17.20;;
54947;SDS011;41113;41.882;12.530;2023-03-24T06:46:09;24.73;;;17.65;;
54947;SDS011;41113;41.882;12.530;2023-03-24T06:48:35;24.90;;;17.52;;
54947;SDS011;41113;41.882;12.530;2023-03-24T06:51:02;25.85;;;17.60;;
54947;SDS011;41113;41.882;12.530;2023-03-24T06:53:27;26.77;;;17.38;;
54947;SDS011;41113;41.882;12.530;2023-03-24T06:55:53;23.67;;;16.48;;
54947;SDS011;41113;41.882;12.530;2023-03-24T06:58:18;25.05;;;16.17;;
54947;SDS011;41113;41.882;12.530;2023-03-24T07:00:50;25.08;;;18.08;;
54947;SDS011;41113;41.882;12.530;2023-03-24T07:03:15;22.42;;;14.27;;
54947;SDS011;41113;41.882;12.530;2023-03-24T07:05:43;23.02;;;15.43;;
54947;SDS011;41113;41.882;12.530;2023-03-24T07:08:10;25.10;;;16.48;;
54947;SDS011;41113;41.882;12.530;2023-03-24T07:10:39;22.40;;;16.33;;
54947;SDS011;41113;41.882;12.530;2023-03-24T07:13:05;25.00;;;16.63;;
54947;SDS011;41113;41.882;12.530;2023-03-24T07:15:32;25.85;;;17.42;;
54947;SDS011;41113;41.882;12.530;2023-03-24T07:17:57;24.40;;;16.95;;
54947;SDS011;41113;41.882;12.530;2023-03-24T07:20:23;23.95;;;17.13;;
54947;SDS011;41113;41.882;12.530;2023-03-24T07:22:48;25.50;;;16.23;;
54947;SDS011;41113;41.882;12.530;2023-03-24T07:25:14;24.27;;;15.93;;
54947;SDS011;41113;41.882;12.530;2023-03-24T07:27:44;23.77;;;16.05;;
54947;SDS011;41113;41.882;12.530;2023-03-24T07:30:10;22.80;;;16.35;;
54947;SDS011;41113;41.882;12.530;2023-03-24T07:32:37;25.92;;;18.35;;
54947;SDS011;41113;41.882;12.530;2023-03-24T07:35:10;27.05;;;17.95;;
54947;SDS011;41113;41.882;12.530;2023-03-24T07:37:37;26.00;;;18.20;;
54947;SDS011;41113;41.882;12.530;2023-03-24T07:40:03;22.95;;;16.73;;
54947;SDS011;41113;41.882;12.530;2023-03-24T07:42:36;26.23;;;18.33;;
54947;SDS011;41113;41.882;12.530;2023-03-24T07:45:02;22.92;;;16.65;;
54947;SDS011;41113;41.882;12.530;2023-03-24T07:47:29;32.72;;;18.60;;
54947;SDS011;41113;41.882;12.530;2023-03-24T07:49:55;33.90;;;19.17;;
54947;SDS011;41113;41.882;12.530;2023-03-24T07:52:21;31.05;;;19.98;;
54947;SDS011;41113;41.882;12.530;2023-03-24T07:54:46;31.98;;;22.27;;
54947;SDS011;41113;41.882;12.530;2023-03-24T07:57:11;30.17;;;20.42;;
54947;SDS011;41113;41.882;12.530;2023-03-24T07:59:37;22.20;;;16.48;;
54947;SDS011;41113;41.882;12.530;2023-03-24T08:02:02;22.90;;;15.40;;
54947;SDS011;41113;41.882;12.530;2023-03-24T08:04:28;19.60;;;14.00;;
54947;SDS011;41113;41.882;12.530;2023-03-24T08:06:53;22.55;;;13.30;;
54947;SDS011;41113;41.882;12.530;2023-03-24T08:09:18;18.60;;;11.00;;
54947;SDS011;41113;41.882;12.530;2023-03-24T08:11:44;20.42;;;12.98;;
54947;SDS011;41113;41.882;12.530;2023-03-24T08:14:10;20.55;;;12.85;;
54947;SDS011;41113;41.882;12.530;2023-03-24T08:16:35;21.13;;;12.50;;
54947;SDS011;41113;41.882;12.530;2023-03-24T08:19:03;18.80;;;11.75;;
54947;SDS011;41113;41.882;12.530;2023-03-24T08:21:28;16.08;;;10.35;;
54947;SDS011;41113;41.882;12.530;2023-03-24T08:23:53;19.20;;;12.35;;
54947;SDS011;41113;41.882;12.530;2023-03-24T08:26:19;20.85;;;13.27;;
54947;SDS011;41113;41.882;12.530;2023-03-24T08:28:44;19.30;;;12.43;;
54947;SDS011;41113;41.882;12.530;2023-03-24T08:31:10;19.33;;;12.48;;
54947;SDS011;41113;41.882;12.530;2023-03-24T08:33:36;19.42;;;11.85;;
54947;SDS011;41113;41.882;12.530;2023-03-24T08:36:01;16.65;;;11.05;;
54947;SDS011;41113;41.882;12.530;2023-03-24T08:38:27;19.25;;;11.73;;
54947;SDS011;41113;41.882;12.530;2023-03-24T08:40:56;18.17;;;11.00;;
54947;SDS011;41113;41.882;12.530;2023-03-24T08:43:29;17.65;;;10.82;;
54947;SDS011;41113;41.882;12.530;2023-03-24T08:45:56;16.42;;;10.10;;
54947;SDS011;41113;41.882;12.530;2023-03-24T08:48:21;16.20;;;9.60;;
54947;SDS011;41113;41.882;12.530;2023-03-24T08:50:47;16.92;;;10.30;;
54947;SDS011;41113;41.882;12.530;2023-03-24T08:53:12;15.30;;;9.70;;
54947;SDS011;41113;41.882;12.530;2023-03-24T08:55:38;17.65;;;10.05;;
54947;SDS011;41113;41.882;12.530;2023-03-24T08:58:07;16.07;;;9.20;;
54947;SDS011;41113;41.882;12.530;2023-03-24T09:00:43;15.55;;;9.38;;
54947;SDS011;41113;41.882;12.530;2023-03-24T09:03:15;15.75;;;9.57;;
54947;SDS011;41113;41.882;12.530;2023-03-24T09:05:45;18.30;;;10.23;;
54947;SDS011;41113;41.882;12.530;2023-03-24T09:08:12;14.45;;;9.07;;
54947;SDS011;41113;41.882;12.530;2023-03-24T09:10:39;14.40;;;8.52;;
54947;SDS011;41113;41.882;12.530;2023-03-24T09:13:06;14.10;;;8.15;;
54947;SDS011;41113;41.882;12.530;2023-03-24T09:15:31;13.07;;;8.00;;
54947;SDS011;41113;41.882;12.530;2023-03-24T09:17:57;15.35;;;8.35;;
54947;SDS011;41113;41.882;12.530;2023-03-24T09:20:23;13.05;;;6.90;;
54947;SDS011;41113;41.882;12.530;2023-03-24T09:22:49;13.32;;;6.80;;
54947;SDS011;41113;41.882;12.530;2023-03-24T09:25:16;13.35;;;5.78;;
54947;SDS011;41113;41.882;12.530;2023-03-24T09:27:42;13.23;;;5.40;;
54947;SDS011;41113;41.882;12.530;2023-03-24T09:30:08;11.85;;;5.72;;
54947;SDS011;41113;41.882;12.530;2023-03-24T09:32:35;11.05;;;4.47;;
54947;SDS011;41113;41.882;12.530;2023-03-24T09:35:01;11.07;;;4.80;;
54947;SDS011;41113;41.882;12.530;2023-03-24T09:37:30;9.07;;;4.32;;
54947;SDS011;41113;41.882;12.530;2023-03-24T09:39:58;10.35;;;4.80;;
54947;SDS011;41113;41.882;12.530;2023-03-24T09:42:26;10.20;;;3.78;;
54947;SDS011;41113;41.882;12.530;2023-03-24T09:44:55;11.50;;;4.25;;
54947;SDS011;41113;41.882;12.530;2023-03-24T09:49:47;8.30;;;3.70;;
54947;SDS011;41113;41.882;12.530;2023-03-24T09:52:16;8.82;;;3.70;;
54947;SDS011;41113;41.882;12.530;2023-03-24T09:54:54;9.00;;;3.38;;
54947;SDS011;41113;41.882;12.530;2023-03-24T09:57:24;13.50;;;3.50;;
54947;SDS011;41113;41.882;12.530;2023-03-24T09:59:53;8.23;;;3.47;;
54947;SDS011;41113;41.882;12.530;2023-03-24T10:02:20;9.52;;;3.58;;
54947;SDS011;41113;41.882;12.530;2023-03-24T10:04:46;9.32;;;3.58;;
54947;SDS011;41113;41.882;12.530;2023-03-24T10:09:52;7.93;;;3.80;;
54947;SDS011;41113;41.882;12.530;2023-03-24T10:17:44;9.10;;;3.42;;
54947;SDS011;41113;41.882;12.530;2023-03-24T10:28:11;10.32;;;3.80;;
54947;SDS011;41113;41.882;12.530;2023-03-24T10:30:51;9.68;;;3.65;;
54947;SDS011;41113;41.882;12.530;2023-03-24T10:33:21;7.68;;;3.17;;
54947;SDS011;41113;41.882;12.530;2023-03-24T10:35:54;9.32;;;3.67;;
54947;SDS011;41113;41.882;12.530;2023-03-24T10:38:25;10.13;;;3.92;;
54947;SDS011;41113;41.882;12.530;2023-03-24T10:40:51;8.43;;;3.95;;
54947;SDS011;41113;41.882;12.530;2023-03-24T10:43:18;11.68;;;4.70;;
54947;SDS011;41113;41.882;12.530;2023-03-24T10:45:48;11.65;;;4.70;;
54947;SDS011;41113;41.882;12.530;2023-03-24T10:51:04;12.52;;;4.32;;
54947;SDS011;41113;41.882;12.530;2023-03-24T10:53:30;9.77;;;4.07;;
54947;SDS011;41113;41.882;12.530;2023-03-24T10:55:58;9.38;;;3.85;;
54947;SDS011;41113;41.882;12.530;2023-03-24T11:01:08;9.30;;;3.90;;
54947;SDS011;41113;41.882;12.530;2023-03-24T11:03:46;9.65;;;4.28;;
54947;SDS011;41113;41.882;12.530;2023-03-24T11:06:16;10.60;;;3.88;;
54947;SDS011;41113;41.882;12.530;2023-03-24T11:08:44;10.75;;;4.55;;
54947;SDS011;41113;41.882;12.530;2023-03-24T11:13:55;9.82;;;4.10;;
54947;SDS011;41113;41.882;12.530;2023-03-24T11:16:29;10.88;;;3.60;;
54947;SDS011;41113;41.882;12.530;2023-03-24T11:19:09;9.13;;;3.80;;
54947;SDS011;41113;41.882;12.530;2023-03-24T11:21:48;12.95;;;4.63;;
54947;SDS011;41113;41.882;12.530;2023-03-24T11:24:24;11.13;;;4.60;;
54947;SDS011;41113;41.882;12.530;2023-03-24T11:27:00;9.80;;;4.13;;
54947;SDS011;41113;41.882;12.530;2023-03-24T11:29:28;10.93;;;4.28;;
54947;SDS011;41113;41.882;12.530;2023-03-24T11:32:00;8.60;;;3.63;;
54947;SDS011;41113;41.882;12.530;2023-03-24T11:34:29;10.55;;;3.72;;
54947;SDS011;41113;41.882;12.530;2023-03-24T11:39:33;8.95;;;3.72;;
54947;SDS011;41113;41.882;12.530;2023-03-24T11:44:44;8.20;;;3.65;;
54947;SDS011;41113;41.882;12.530;2023-03-24T11:49:44;8.48;;;3.40;;
54947;SDS011;41113;41.882;12.530;2023-03-24T11:52:22;10.32;;;3.90;;
54947;SDS011;41113;41.882;12.530;2023-03-24T11:54:52;8.30;;;3.67;;
54947;SDS011;41113;41.882;12.530;2023-03-24T11:57:21;8.55;;;3.58;;
54947;SDS011;41113;41.882;12.530;2023-03-24T12:05:26;7.90;;;3.40;;
54947;SDS011;41113;41.882;12.530;2023-03-24T12:13:43;7.70;;;3.08;;
54947;SDS011;41113;41.882;12.530;2023-03-24T12:19:12;10.43;;;3.67;;
54947;SDS011;41113;41.882;12.530;2023-03-24T12:22:05;9.52;;;3.95;;
54947;SDS011;41113;41.882;12.530;2023-03-24T12:30:23;7.97;;;3.40;;
54947;SDS011;41113;41.882;12.530;2023-03-24T12:38:54;10.05;;;3.53;;
54947;SDS011;41113;41.882;12.530;2023-03-24T12:41:48;8.80;;;3.40;;
54947;SDS011;41113;41.882;12.530;2023-03-24T12:47:27;8.30;;;3.30;;
54947;SDS011;41113;41.882;12.530;2023-03-24T12:50:30;8.80;;;3.05;;
54947;SDS011;41113;41.882;12.530;2023-03-24T12:53:24;9.27;;;3.35;;
54947;SDS011;41113;41.882;12.530;2023-03-24T12:56:03;8.73;;;3.03;;
54947;SDS011;41113;41.882;12.530;2023-03-24T12:58:42;9.63;;;2.90;;
54947;SDS011;41113;41.882;12.530;2023-03-24T13:04:10;8.43;;;3.05;;
54947;SDS011;41113;41.882;12.530;2023-03-24T13:07:09;9.15;;;2.90;;
54947;SDS011;41113;41.882;12.530;2023-03-24T13:15:15;10.18;;;3.13;;
54947;SDS011;41113;41.882;12.530;2023-03-24T13:18:02;8.02;;;3.03;;
54947;SDS011;41113;41.882;12.530;2023-03-24T13:20:33;9.45;;;3.85;;
54947;SDS011;41113;41.882;12.530;2023-03-24T13:23:29;8.18;;;3.33;;
54947;SDS011;41113;41.882;12.530;2023-03-24T13:31:59;8.75;;;3.40;;
54947;SDS011;41113;41.882;12.530;2023-03-24T13:34:34;8.68;;;4.22;;
54947;SDS011;41113;41.882;12.530;2023-03-24T13:39:35;9.27;;;3.95;;
54947;SDS011;41113;41.882;12.530;2023-03-24T13:42:02;8.50;;;3.78;;
54947;SDS011;41113;41.882;12.530;2023-03-24T13:44:38;10.63;;;3.97;;
54947;SDS011;41113;41.882;12.530;2023-03-24T13:47:17;10.93;;;4.38;;
54947;SDS011;41113;41.882;12.530;2023-03-24T13:50:05;10.27;;;4.35;;
54947;SDS011;41113;41.882;12.530;2023-03-24T13:52:34;8.98;;;4.25;;
54947;SDS011;41113;41.882;12.530;2023-03-24T13:55:08;9.48;;;4.05;;
54947;SDS011;41113;41.882;12.530;2023-03-24T13:57:41;8.95;;;3.95;;
54947;SDS011;41113;41.882;12.530;2023-03-24T14:00:17;10.77;;;3.95;;
54947;SDS011;41113;41.882;12.530;2023-03-24T14:02:48;13.48;;;4.60;;
54947;SDS011;41113;41.882;12.530;2023-03-24T14:07:49;10.55;;;4.78;;
54947;SDS011;41113;41.882;12.530;2023-03-24T14:10:40;9.60;;;3.97;;
54947;SDS011;41113;41.882;12.530;2023-03-24T14:25:57;8.20;;;3.45;;
54947;SDS011;41113;41.882;12.530;2023-03-24T14:31:30;10.40;;;4.18;;
54947;SDS011;41113;41.882;12.530;2023-03-24T14:36:46;10.63;;;4.63;;
54947;SDS011;41113;41.882;12.530;2023-03-24T14:39:44;9.60;;;4.45;;
54947;SDS011;41113;41.882;12.530;2023-03-24T14:45:05;10.90;;;3.85;;
54947;SDS011;41113;41.882;12.530;2023-03-24T14:47:58;10.70;;;4.53;;
54947;SDS011;41113;41.882;12.530;2023-03-24T14:50:25;13.57;;;4.28;;
54947;SDS011;41113;41.882;12.530;2023-03-24T14:52:53;10.10;;;4.10;;
54947;SDS011;41113;41.882;12.530;2023-03-24T14:55:22;9.95;;;4.00;;
54947;SDS011;41113;41.882;12.530;2023-03-24T14:57:59;9.10;;;3.88;;
54947;SDS011;41113;41.882;12.530;2023-03-24T15:00:35;11.13;;;4.50;;
54947;SDS011;41113;41.882;12.530;2023-03-24T15:03:42;9.88;;;4.53;;
54947;SDS011;41113;41.882;12.530;2023-03-24T15:06:17;11.95;;;5.07;;
54947;SDS011;41113;41.882;12.530;2023-03-24T15:08:49;11.73;;;4.85;;
54947;SDS011;41113;41.882;12.530;2023-03-24T15:11:37;10.63;;;4.55;;
54947;SDS011;41113;41.882;12.530;2023-03-24T15:14:04;9.13;;;4.38;;
54947;SDS011;41113;41.882;12.530;2023-03-24T15:16:33;11.43;;;5.20;;
54947;SDS011;41113;41.882;12.530;2023-03-24T15:19:05;13.10;;;5.00;;
54947;SDS011;41113;41.882;12.530;2023-03-24T15:27:32;10.57;;;4.75;;
54947;SDS011;41113;41.882;12.530;2023-03-24T15:29:32;11.05;;;4.38;;
54947;SDS011;41113;41.882;12.530;2023-03-24T15:31:58;10.48;;;4.90;;
54947;SDS011;41113;41.882;12.530;2023-03-24T15:34:28;11.75;;;5.70;;
54947;SDS011;41113;41.882;12.530;2023-03-24T15:37:06;11.18;;;4.93;;
54947;SDS011;41113;41.882;12.530;2023-03-24T15:39:57;9.88;;;5.00;;
54947;SDS011;41113;41.882;12.530;2023-03-24T15:42:23;11.98;;;5.13;;
54947;SDS011;41113;41.882;12.530;2023-03-24T15:44:49;9.07;;;4.70;;
54947;SDS011;41113;41.882;12.530;2023-03-24T15:47:22;11.88;;;5.63;;
54947;SDS011;41113;41.882;12.530;2023-03-24T15:49:52;10.73;;;5.00;;
54947;SDS011;41113;41.882;12.530;2023-03-24T15:54:58;9.90;;;5.28;;
54947;SDS011;41113;41.882;12.530;2023-03-24T15:57:25;11.57;;;5.00;;
54947;SDS011;41113;41.882;12.530;2023-03-24T16:02:43;10.95;;;5.00;;
54947;SDS011;41113;41.882;12.530;2023-03-24T16:05:19;10.50;;;4.75;;
54947;SDS011;41113;41.882;12.530;2023-03-24T16:07:53;10.50;;;5.13;;
54947;SDS011;41113;41.882;12.530;2023-03-24T16:10:27;13.07;;;4.97;;
54947;SDS011;41113;41.882;12.530;2023-03-24T16:12:56;9.63;;;4.85;;
54947;SDS011;41113;41.882;12.530;2023-03-24T16:15:43;10.43;;;4.93;;
54947;SDS011;41113;41.882;12.530;2023-03-24T16:18:32;10.68;;;5.03;;
54947;SDS011;41113;41.882;12.530;2023-03-24T16:21:00;12.10;;;5.28;;
54947;SDS011;41113;41.882;12.530;2023-03-24T16:23:33;10.57;;;4.85;;
54947;SDS011;41113;41.882;12.530;2023-03-24T16:25:58;11.18;;;5.28;;
54947;SDS011;41113;41.882;12.530;2023-03-24T16:28:23;10.32;;;4.88;;
54947;SDS011;41113;41.882;12.530;2023-03-24T16:30:50;10.90;;;5.15;;
54947;SDS011;41113;41.882;12.530;2023-03-24T16:33:22;9.27;;;4.60;;
54947;SDS011;41113;41.882;12.530;2023-03-24T16:35:47;8.52;;;4.25;;
54947;SDS011;41113;41.882;12.530;2023-03-24T16:38:14;10.10;;;4.95;;
54947;SDS011;41113;41.882;12.530;2023-03-24T16:40:47;8.40;;;4.45;;
54947;SDS011;41113;41.882;12.530;2023-03-24T16:43:15;9.95;;;4.20;;
54947;SDS011;41113;41.882;12.530;2023-03-24T16:45:40;11.60;;;4.60;;
54947;SDS011;41113;41.882;12.530;2023-03-24T16:48:11;11.07;;;4.47;;
54947;SDS011;41113;41.882;12.530;2023-03-24T16:50:48;9.48;;;4.40;;
54947;SDS011;41113;41.882;12.530;2023-03-24T16:53:15;9.97;;;4.23;;
54947;SDS011;41113;41.882;12.530;2023-03-24T16:55:41;8.48;;;4.25;;
54947;SDS011;41113;41.882;12.530;2023-03-24T16:58:08;10.00;;;4.40;;
54947;SDS011;41113;41.882;12.530;2023-03-24T17:00:36;9.13;;;4.00;;
54947;SDS011;41113;41.882;12.530;2023-03-24T17:03:02;10.43;;;4.28;;
54947;SDS011;41113;41.882;12.530;2023-03-24T17:05:34;12.00;;;3.97;;
54947;SDS011;41113;41.882;12.530;2023-03-24T17:08:05;10.38;;;4.65;;
54947;SDS011;41113;41.882;12.530;2023-03-24T17:10:30;8.63;;;4.35;;
54947;SDS011;41113;41.882;12.530;2023-03-24T17:12:57;12.45;;;4.25;;
54947;SDS011;41113;41.882;12.530;2023-03-24T17:15:26;9.55;;;4.22;;
54947;SDS011;41113;41.882;12.530;2023-03-24T17:17:53;9.68;;;4.47;;
54947;SDS011;41113;41.882;12.530;2023-03-24T17:20:19;9.95;;;4.95;;
54947;SDS011;41113;41.882;12.530;2023-03-24T17:22:47;9.95;;;5.00;;
54947;SDS011;41113;41.882;12.530;2023-03-24T17:25:16;13.17;;;5.90;;
54947;SDS011;41113;41.882;12.530;2023-03-24T17:27:43;10.05;;;4.43;;
54947;SDS011;41113;41.882;12.530;2023-03-24T17:30:13;9.15;;;4.35;;
54947;SDS011;41113;41.882;12.530;2023-03-24T17:32:41;9.48;;;4.32;;
54947;SDS011;41113;41.882;12.530;2023-03-24T17:35:17;11.73;;;4.32;;
54947;SDS011;41113;41.882;12.530;2023-03-24T17:37:44;9.43;;;4.47;;
54947;SDS011;41113;41.882;12.530;2023-03-24T17:40:12;10.95;;;4.80;;